Time;durP1;ratioP1;P1;durP2;ratioP2;P2;SDS_P1;SDS_P2;PMS_P1;PMS_P2;Temp;Humidity;BMP_temperature;BMP_pressure;BME280_temperature;BME280_humidity;BME280_pressure;Samples;Min_cycle;Max_cycle;Signal;HPM_P1;HPM_P2
2021/07/05 00:01:21;;;;;;;98.13;38.17;;;14.90;99.90;;;;;;4165144;28;20500;-85
2021/07/05 00:03:21;;;;;;;96.18;37.30;;;14.90;99.90;;;;;;4164277;28;20041;-86
2021/07/05 00:05:23;;;;;;;77.13;34.78;;;15.00;99.90;;;;;;4164235;28;20061;-84
2021/07/05 00:07:25;;;;;;;85.53;36.38;;;15.00;99.90;;;;;;4163886;28;20028;-84
2021/07/05 00:09:25;;;;;;;86.03;36.88;;;15.00;99.90;;;;;;4163613;28;20022;-86
2021/07/05 00:11:42;;;;;;;92.72;38.75;;;15.10;99.90;;;;;;4165989;28;20499;-85
2021/07/05 00:14:11;;;;;;;93.68;38.30;;;15.00;99.90;;;;;;4164540;28;20454;-85
2021/07/05 00:16:20;;;;;;;83.45;35.55;;;15.00;99.90;;;;;;4180719;28;20083;-86
2021/07/05 00:18:21;;;;;;;78.90;37.38;;;14.90;99.90;;;;;;4165666;28;20029;-86
2021/07/05 00:20:45;;;;;;;82.78;36.70;;;14.80;99.90;;;;;;4165666;28;20168;-86
2021/07/05 00:22:47;;;;;;;87.43;38.65;;;14.80;99.90;;;;;;4155467;28;20042;-85
2021/07/05 00:24:49;;;;;;;90.20;39.17;;;14.80;99.90;;;;;;4147650;28;20517;-86
2021/07/05 00:27:05;;;;;;;91.97;40.30;;;14.80;99.90;;;;;;4149193;28;20585;-86
2021/07/05 00:29:08;;;;;;;93.35;40.25;;;14.80;99.90;;;;;;4147393;28;20042;-85
2021/07/05 00:31:14;;;;;;;91.22;41.10;;;14.80;99.90;;;;;;4149367;28;20045;-86
2021/07/05 00:33:17;;;;;;;98.35;41.10;;;14.90;99.90;;;;;;4148860;28;20034;-85
2021/07/05 00:35:20;;;;;;;98.47;41.92;;;14.90;99.90;;;;;;4147266;28;20033;-85
2021/07/05 00:37:20;;;;;;;89.85;40.83;;;15.00;99.90;;;;;;4148566;28;20030;-86
2021/07/05 00:39:29;;;;;;;90.40;39.63;;;15.00;99.90;;;;;;4148435;28;20073;-86
2021/07/05 00:41:30;;;;;;;91.70;39.83;;;15.00;99.90;;;;;;4146360;28;20042;-85
2021/07/05 00:43:31;;;;;;;80.95;37.20;;;15.00;99.90;;;;;;4147231;28;20471;-85
2021/07/05 00:45:32;;;;;;;79.38;37.28;;;15.10;99.90;;;;;;4148399;28;20100;-85
2021/07/05 00:47:33;;;;;;;81.72;35.92;;;15.10;99.90;;;;;;4146798;28;20029;-86
2021/07/05 00:49:41;;;;;;;77.22;34.35;;;15.20;99.90;;;;;;4163272;28;20034;-85
2021/07/05 00:51:42;;;;;;;74.97;35.50;;;15.20;99.90;;;;;;4163523;28;20496;-86
2021/07/05 00:53:48;;;;;;;70.85;33.38;;;15.30;99.90;;;;;;4163858;28;20033;-87
2021/07/05 00:55:50;;;;;;;74.97;31.27;;;15.30;99.90;;;;;;4163979;28;20038;-88
2021/07/05 00:57:51;;;;;;;66.22;30.58;;;15.30;99.90;;;;;;4163375;28;20072;-88
2021/07/05 00:59:59;;;;;;;68.70;28.95;;;15.40;99.90;;;;;;4164945;28;20063;-87
2021/07/05 01:01:59;;;;;;;63.80;30.40;;;15.40;99.90;;;;;;4164197;28;20037;-86
2021/07/05 01:04:06;;;;;;;62.33;28.75;;;15.40;99.90;;;;;;4163955;28;20096;-87
2021/07/05 01:06:07;;;;;;;57.45;27.70;;;15.40;99.90;;;;;;4164705;28;20034;-86
2021/07/05 01:08:15;;;;;;;63.10;29.05;;;15.40;99.90;;;;;;4163267;28;20057;-87
2021/07/05 01:10:19;;;;;;;56.28;27.20;;;15.40;99.90;;;;;;4163130;28;20381;-88
2021/07/05 01:12:25;;;;;;;49.85;24.52;;;15.40;99.90;;;;;;4163793;28;20111;-88
2021/07/05 01:14:26;;;;;;;49.47;25.75;;;15.40;99.90;;;;;;4164962;28;20489;-85
2021/07/05 01:16:30;;;;;;;51.90;27.05;;;15.40;99.90;;;;;;4152091;28;20056;-86
2021/07/05 01:18:30;;;;;;;50.83;26.65;;;15.40;99.90;;;;;;4148018;28;20029;-86
2021/07/05 01:20:32;;;;;;;50.72;27.77;;;15.40;99.90;;;;;;4147734;28;20038;-86
2021/07/05 01:22:37;;;;;;;55.65;28.15;;;15.50;99.90;;;;;;4147575;28;20037;-86
2021/07/05 01:24:40;;;;;;;46.25;24.67;;;15.40;99.90;;;;;;4146939;28;20056;-86
2021/07/05 01:26:41;;;;;;;58.25;28.10;;;15.40;99.90;;;;;;4146794;28;20041;-86
2021/07/05 01:28:43;;;;;;;54.78;28.13;;;15.40;99.90;;;;;;4145324;28;20616;-86
2021/07/05 01:30:44;;;;;;;58.03;29.17;;;15.40;99.90;;;;;;4154981;28;20504;-85
2021/07/05 01:33:02;;;;;;;58.08;28.50;;;15.40;99.90;;;;;;4161745;28;20318;-85
2021/07/05 01:35:06;;;;;;;54.55;28.65;;;15.40;99.90;;;;;;4160794;28;20491;-86
2021/07/05 01:37:12;;;;;;;61.70;30.20;;;15.30;99.90;;;;;;4163583;28;20370;-85
2021/07/05 01:39:13;;;;;;;62.20;28.48;;;15.30;99.90;;;;;;4162328;28;20763;-86
2021/07/05 01:41:13;;;;;;;57.42;29.65;;;15.30;99.90;;;;;;4163369;28;20069;-85
2021/07/05 01:43:14;;;;;;;62.55;32.15;;;15.30;99.90;;;;;;4162347;28;20033;-86
2021/07/05 01:45:15;;;;;;;71.95;30.80;;;15.30;99.90;;;;;;4162178;28;20018;-86
2021/07/05 01:47:16;;;;;;;60.75;31.13;;;15.30;99.90;;;;;;4163714;28;20026;-87
2021/07/05 01:49:18;;;;;;;63.90;30.92;;;15.20;99.90;;;;;;4162080;28;20018;-85
2021/07/05 01:51:19;;;;;;;62.80;29.05;;;15.20;99.90;;;;;;4163425;28;20041;-86
2021/07/05 01:53:20;;;;;;;63.83;30.10;;;15.30;99.90;;;;;;4162629;28;20413;-85
2021/07/05 01:55:31;;;;;;;59.10;28.50;;;15.20;99.90;;;;;;4163240;28;20523;-86
2021/07/05 01:57:34;;;;;;;57.75;28.65;;;15.20;99.90;;;;;;4162876;28;20448;-86
2021/07/05 01:59:37;;;;;;;56.38;27.77;;;15.10;99.90;;;;;;4162434;28;20034;-86
2021/07/05 02:01:39;;;;;;;55.03;28.48;;;15.10;99.90;;;;;;4163856;28;20396;-86
2021/07/05 02:03:48;;;;;;;60.22;29.40;;;15.10;99.90;;;;;;4163021;28;20081;-85
2021/07/05 02:05:49;;;;;;;55.80;29.00;;;15.10;99.90;;;;;;4164001;28;20029;-85
2021/07/05 02:08:00;;;;;;;67.03;30.15;;;15.10;99.90;;;;;;4162678;28;20040;-86
2021/07/05 02:10:05;;;;;;;62.70;30.95;;;15.10;99.90;;;;;;4158112;28;20068;-86
2021/07/05 02:12:08;;;;;;;58.88;29.10;;;15.10;99.90;;;;;;4163383;28;20057;-85
2021/07/05 02:14:09;;;;;;;57.30;28.65;;;15.20;99.90;;;;;;4162484;28;20485;-85
2021/07/05 02:16:16;;;;;;;62.67;29.80;;;15.30;99.90;;;;;;4163981;28;20071;-86
2021/07/05 02:18:19;;;;;;;64.35;31.13;;;15.40;99.90;;;;;;4162121;28;20519;-85
2021/07/05 02:20:22;;;;;;;;;;;15.40;99.90;;;;;;4163157;28;20037;-88
2021/07/05 02:22:29;;;;;;;57.70;28.80;;;15.40;99.90;;;;;;4162260;28;19963;-88
2021/07/05 02:24:32;;;;;;;56.05;28.13;;;15.40;99.90;;;;;;4162595;28;20050;-88
2021/07/05 02:26:43;;;;;;;57.58;29.63;;;15.40;99.90;;;;;;4162667;28;20033;-87
2021/07/05 02:28:43;;;;;;;56.70;28.90;;;15.40;99.90;;;;;;4162482;28;20048;-88
2021/07/05 02:30:48;;;;;;;58.35;29.55;;;15.50;99.90;;;;;;4161653;28;20029;-88
2021/07/05 02:32:49;;;;;;;54.22;28.92;;;15.50;99.90;;;;;;4150316;28;20080;-88
2021/07/05 02:34:58;;;;;;;54.38;29.00;;;15.50;99.90;;;;;;4162218;28;20084;-88
2021/07/05 02:37:08;;;;;;;54.92;28.83;;;15.50;99.90;;;;;;4163002;28;20120;-88
2021/07/05 02:39:15;;;;;;;58.30;29.13;;;15.50;99.90;;;;;;4161677;28;20386;-87
2021/07/05 02:41:16;;;;;;;51.38;26.33;;;15.50;99.90;;;;;;4162523;28;20163;-88
2021/07/05 02:43:18;;;;;;;48.53;26.95;;;15.50;99.90;;;;;;4162827;28;20022;-88
2021/07/05 02:45:24;;;;;;;58.15;29.23;;;15.40;99.90;;;;;;4161738;28;20060;-88
2021/07/05 02:47:25;;;;;;;55.15;28.48;;;15.40;99.90;;;;;;4162798;28;20022;-89
2021/07/05 02:49:29;;;;;;;50.55;29.30;;;15.40;99.90;;;;;;4163223;28;20057;-87
2021/07/05 02:51:40;;;;;;;42.03;24.55;;;15.50;99.90;;;;;;4162879;28;20421;-89
2021/07/05 02:53:52;;;;;;;42.28;23.95;;;15.60;99.90;;;;;;4161598;28;20038;-87
2021/07/05 02:55:54;;;;;;;42.85;24.35;;;15.70;99.90;;;;;;4162762;28;20137;-87
2021/07/05 02:57:56;;;;;;;40.10;22.73;;;15.60;99.90;;;;;;4161936;28;20559;-87
2021/07/05 03:00:12;;;;;;;38.95;21.92;;;15.70;99.90;;;;;;4163610;28;20026;-88
2021/07/05 03:02:13;;;;;;;37.97;22.85;;;15.70;99.90;;;;;;4160931;28;20111;-87
2021/07/05 03:04:14;;;;;;;40.60;23.27;;;15.70;99.90;;;;;;4162558;28;20037;-88
2021/07/05 03:06:16;;;;;;;41.45;20.92;;;15.70;99.90;;;;;;4165854;28;20483;-89
2021/07/05 03:08:19;;;;;;;33.15;20.45;;;15.80;99.90;;;;;;4164443;28;20383;-87
2021/07/05 03:10:34;;;;;;;30.52;19.65;;;15.80;99.90;;;;;;4165213;28;20034;-87
2021/07/05 03:12:44;;;;;;;30.85;17.95;;;15.80;99.90;;;;;;4163469;28;20113;-86
2021/07/05 03:14:44;;;;;;;21.92;14.20;;;15.80;99.90;;;;;;4161531;28;20041;-83
2021/07/05 03:16:46;;;;;;;25.23;13.18;;;15.70;99.90;;;;;;4165232;28;20235;-86
2021/07/05 03:18:47;;;;;;;18.42;10.20;;;15.70;99.90;;;;;;4165393;28;20120;-82
2021/07/05 03:20:55;;;;;;;20.73;8.68;;;15.70;99.90;;;;;;4159128;28;20331;-84
2021/07/05 03:22:59;;;;;;;14.27;8.18;;;15.60;99.90;;;;;;4163574;28;20091;-84
2021/07/05 03:25:11;;;;;;;12.63;7.68;;;15.50;99.90;;;;;;4152001;28;20078;-85
2021/07/05 03:27:12;;;;;;;16.27;7.72;;;15.40;99.90;;;;;;4163021;28;20034;-86
2021/07/05 03:29:13;;;;;;;9.82;6.55;;;15.40;99.90;;;;;;4164802;28;20026;-86
2021/07/05 03:31:13;;;;;;;11.50;6.65;;;15.40;99.90;;;;;;4155433;28;20391;-86
2021/07/05 03:33:17;;;;;;;11.70;6.60;;;15.40;99.90;;;;;;4164945;28;20353;-86
2021/07/05 03:35:20;;;;;;;16.30;7.60;;;15.40;99.90;;;;;;4164263;28;20029;-86
2021/07/05 03:37:21;;;;;;;13.57;7.43;;;15.20;99.90;;;;;;4162671;28;20118;-86
2021/07/05 03:39:23;;;;;;;15.75;6.35;;;15.10;99.90;;;;;;4166357;28;20037;-88
2021/07/05 03:41:25;;;;;;;9.00;5.82;;;15.00;99.90;;;;;;4164523;28;20030;-87
2021/07/05 03:43:26;;;;;;;9.13;5.18;;;15.00;99.90;;;;;;4164559;28;20037;-87
2021/07/05 03:45:31;;;;;;;9.48;5.40;;;15.00;99.90;;;;;;4164065;28;20052;-88
2021/07/05 03:47:32;;;;;;;9.25;5.78;;;14.80;99.90;;;;;;4164420;28;20048;-89
2021/07/05 03:49:32;;;;;;;15.50;5.88;;;14.70;99.90;;;;;;4164603;28;20468;-86
2021/07/05 03:51:33;;;;;;;12.93;6.10;;;14.70;99.90;;;;;;4163496;28;20036;-83
2021/07/05 03:53:33;;;;;;;12.77;6.30;;;14.70;99.90;;;;;;4164736;28;20041;-83
2021/07/05 03:55:35;;;;;;;10.63;5.72;;;14.60;99.90;;;;;;4164474;28;20120;-83
2021/07/05 03:57:37;;;;;;;12.52;6.22;;;14.50;99.90;;;;;;4164217;28;20033;-83
2021/07/05 03:59:38;;;;;;;14.70;6.75;;;14.40;99.90;;;;;;4176015;28;20037;-83
2021/07/05 04:01:40;;;;;;;11.95;6.57;;;14.40;99.90;;;;;;4162556;28;20095;-85
2021/07/05 04:03:41;;;;;;;17.88;7.50;;;14.30;99.90;;;;;;4165078;28;20041;-84
2021/07/05 04:05:43;;;;;;;15.98;7.40;;;14.30;99.90;;;;;;4164302;28;20203;-84
2021/07/05 04:07:44;;;;;;;16.63;8.00;;;14.20;99.90;;;;;;4159792;28;20127;-85
2021/07/05 04:09:47;;;;;;;17.38;8.23;;;14.30;99.90;;;;;;4164134;28;20061;-85
2021/07/05 04:12:20;;;;;;;16.05;7.85;;;14.20;99.90;;;;;;4178928;28;20590;-87
2021/07/05 04:14:22;;;;;;;16.10;8.18;;;14.20;99.90;;;;;;4155158;28;20048;-85
2021/07/05 04:16:36;;;;;;;17.73;8.45;;;14.20;99.90;;;;;;4156266;28;20046;-85
2021/07/05 04:18:36;;;;;;;;;;;14.20;99.90;;;;;;4164278;28;20493;-85
2021/07/05 04:20:37;;;;;;;19.02;8.25;;;14.20;99.90;;;;;;4164029;28;19917;-85
2021/07/05 04:22:38;;;;;;;15.05;8.10;;;14.20;99.90;;;;;;4163222;28;20024;-85
2021/07/05 04:24:39;;;;;;;23.67;9.13;;;14.20;99.90;;;;;;4169341;28;20033;-86
2021/07/05 04:26:42;;;;;;;22.58;9.73;;;14.20;99.90;;;;;;4164252;28;20404;-87
2021/07/05 04:28:52;;;;;;;18.92;9.23;;;14.20;99.90;;;;;;4164122;28;20473;-87
2021/07/05 04:30:55;;;;;;;16.35;8.10;;;14.20;99.90;;;;;;4163593;28;20033;-88
2021/07/05 04:33:10;;;;;;;15.98;8.50;;;14.30;99.90;;;;;;4162425;28;20061;-87
2021/07/05 04:35:19;;;;;;;28.33;9.88;;;14.20;99.90;;;;;;4163013;28;20025;-89
2021/07/05 04:37:20;;;;;;;18.67;9.52;;;14.20;99.90;;;;;;4164662;28;20108;-89
2021/07/05 04:39:24;;;;;;;27.55;9.45;;;14.20;99.90;;;;;;4165506;28;20088;-88
2021/07/05 04:41:35;;;;;;;23.63;10.15;;;14.30;99.90;;;;;;4164729;28;20037;-89
2021/07/05 04:43:45;;;;;;;21.95;8.90;;;14.30;99.90;;;;;;4164388;28;20046;-89
2021/07/05 04:45:46;;;;;;;23.40;9.02;;;14.30;99.90;;;;;;4165139;28;20413;-87
2021/07/05 04:47:50;;;;;;;17.38;9.32;;;14.40;99.90;;;;;;4164381;28;20121;-89
2021/07/05 04:49:58;;;;;;;16.48;8.73;;;14.40;99.90;;;;;;4166062;28;20103;-91
2021/07/05 04:52:21;;;;;;;20.88;9.32;;;14.40;99.90;;;;;;4165068;28;20057;-92
2021/07/05 04:54:38;;;;;;;17.40;8.98;;;14.30;99.90;;;;;;4163769;28;20044;-92
2021/07/05 04:56:43;;;;;;;16.75;8.20;;;14.30;99.90;;;;;;4166269;28;20056;-92
2021/07/05 04:58:52;;;;;;;16.25;8.50;;;14.40;99.90;;;;;;4165240;28;20064;-91
2021/07/05 05:00:52;;;;;;;24.25;9.95;;;14.30;99.90;;;;;;4165466;28;20033;-91
2021/07/05 05:03:07;;;;;;;22.10;9.25;;;14.30;99.90;;;;;;4165008;28;20036;-89
2021/07/05 05:05:09;;;;;;;15.90;8.10;;;14.20;99.90;;;;;;4153596;28;20041;-92
2021/07/05 05:07:11;;;;;;;17.98;9.07;;;14.20;99.90;;;;;;4152531;28;20025;-91
2021/07/05 05:09:18;;;;;;;30.20;10.23;;;14.20;99.90;;;;;;4168770;28;20026;-94
2021/07/05 05:11:20;;;;;;;27.30;12.55;;;14.20;99.90;;;;;;4161051;28;20063;-92
2021/07/05 05:13:29;;;;;;;23.35;12.43;;;14.20;99.90;;;;;;4169122;28;20626;-92
2021/07/05 05:15:30;;;;;;;28.33;13.00;;;14.20;99.90;;;;;;4167335;28;20033;-94
2021/07/05 05:17:33;;;;;;;32.15;13.27;;;14.20;99.90;;;;;;4164070;28;20037;-94
2021/07/05 05:19:35;;;;;;;30.00;13.55;;;14.20;99.90;;;;;;4167744;28;20037;-94
2021/07/05 05:21:38;;;;;;;34.80;13.52;;;14.20;99.90;;;;;;4166402;28;20041;-92
2021/07/05 05:23:40;;;;;;;27.90;13.35;;;14.20;99.90;;;;;;4164514;28;20562;-95
2021/07/05 05:25:43;;;;;;;26.35;11.85;;;14.20;99.90;;;;;;4164493;28;20477;-90
2021/07/05 05:27:44;;;;;;;21.58;10.95;;;14.30;99.90;;;;;;4164299;28;20064;-89
2021/07/05 05:29:46;;;;;;;23.77;11.95;;;14.30;99.90;;;;;;4157222;28;20034;-91
2021/07/05 05:31:53;;;;;;;36.50;18.08;;;14.40;99.90;;;;;;4160881;28;20061;-88
2021/07/05 05:33:54;;;;;;;26.75;12.45;;;14.40;99.90;;;;;;4161970;28;20032;-90
2021/07/05 05:35:55;;;;;;;27.90;14.50;;;14.50;99.90;;;;;;4163470;28;20037;-89
2021/07/05 05:37:58;;;;;;;38.25;16.25;;;14.60;99.90;;;;;;4162389;28;20120;-90
2021/07/05 05:39:59;;;;;;;26.60;12.25;;;14.60;99.90;;;;;;4163735;28;20030;-89
2021/07/05 05:42:00;;;;;;;30.60;12.30;;;14.60;99.90;;;;;;4164135;28;20424;-92
2021/07/05 05:44:02;;;;;;;30.05;12.48;;;14.70;99.90;;;;;;4157349;28;20038;-88
2021/07/05 05:46:02;;;;;;;32.00;13.02;;;14.70;99.90;;;;;;4163281;28;20055;-91
2021/07/05 05:48:09;;;;;;;28.58;12.23;;;14.80;99.90;;;;;;4171304;28;20459;-88
2021/07/05 05:50:27;;;;;;;29.20;13.73;;;14.80;99.90;;;;;;4164644;28;20586;-89
2021/07/05 05:52:28;;;;;;;25.58;13.63;;;14.80;99.90;;;;;;4164523;28;20013;-91
2021/07/05 05:54:37;;;;;;;31.70;13.10;;;14.80;99.90;;;;;;4163177;28;20087;-89
2021/07/05 05:56:40;;;;;;;31.33;14.70;;;14.80;99.90;;;;;;4163415;28;20037;-89
2021/07/05 05:58:49;;;;;;;31.15;14.55;;;14.80;99.90;;;;;;4163285;28;20034;-90
2021/07/05 06:00:50;;;;;;;27.55;13.80;;;14.80;99.90;;;;;;4163328;28;20103;-92
2021/07/05 06:02:51;;;;;;;30.35;13.57;;;14.80;99.90;;;;;;4163626;28;20025;-89
2021/07/05 06:04:54;;;;;;;28.98;13.30;;;14.70;99.90;;;;;;4161924;28;20397;-88
2021/07/05 06:06:56;;;;;;;26.63;12.60;;;14.70;99.90;;;;;;4162077;28;20037;-90
2021/07/05 06:09:02;;;;;;;32.90;13.88;;;14.70;99.90;;;;;;4163315;28;20022;-89
2021/07/05 06:11:09;;;;;;;31.15;12.60;;;14.70;99.90;;;;;;4163224;28;20548;-96
2021/07/05 06:13:10;;;;;;;26.35;12.35;;;14.60;99.90;;;;;;4176797;28;20021;-92
2021/07/05 06:15:20;;;;;;;30.02;13.23;;;14.60;99.90;;;;;;4168421;28;20084;-89
2021/07/05 06:17:29;;;;;;;33.17;14.60;;;14.70;99.90;;;;;;4165541;28;20041;-94
2021/07/05 06:19:29;;;;;;;29.33;12.73;;;14.60;99.90;;;;;;4160548;28;20026;-91
2021/07/05 06:21:38;;;;;;;28.65;14.65;;;14.70;99.90;;;;;;4157602;28;20044;-89
2021/07/05 06:23:39;;;;;;;29.67;14.68;;;14.80;99.90;;;;;;4162694;28;20044;-90
2021/07/05 06:25:39;;;;;;;25.10;14.13;;;14.90;99.90;;;;;;4165335;28;20025;-92
2021/07/05 06:27:40;;;;;;;26.05;12.73;;;15.10;99.90;;;;;;4162779;28;20484;-91
2021/07/05 06:29:47;;;;;;;30.88;13.98;;;15.10;99.90;;;;;;4167104;28;20099;-90
2021/07/05 06:32:00;;;;;;;32.60;14.30;;;15.20;99.90;;;;;;4166656;28;20041;-91
2021/07/05 06:34:04;;;;;;;32.67;14.20;;;15.40;99.90;;;;;;4164201;28;20124;-91
2021/07/05 06:36:04;;;;;;;24.45;13.95;;;15.40;99.90;;;;;;4162633;28;20033;-93
2021/07/05 06:38:05;;;;;;;30.13;15.25;;;15.50;99.90;;;;;;4162848;28;20041;-89
2021/07/05 06:40:08;;;;;;;22.40;13.02;;;15.50;99.90;;;;;;4165968;28;20750;-91
2021/07/05 06:42:16;;;;;;;24.55;13.95;;;15.70;99.90;;;;;;4170268;28;20136;-93
2021/07/05 06:44:18;;;;;;;24.15;12.40;;;15.70;99.90;;;;;;4166750;28;20032;-90
2021/07/05 06:46:21;;;;;;;23.40;12.97;;;15.80;99.90;;;;;;4168969;28;20125;-92
2021/07/05 06:48:29;;;;;;;18.95;12.65;;;15.80;99.90;;;;;;4168726;28;20330;-88
2021/07/05 06:50:37;;;;;;;22.20;11.88;;;15.80;99.90;;;;;;4167491;28;20062;-90
2021/07/05 06:52:45;;;;;;;16.02;11.52;;;15.90;99.90;;;;;;4175915;28;20088;-93
2021/07/05 06:55:08;;;;;;;25.25;15.07;;;15.90;99.90;;;;;;4171683;28;20041;-90
2021/07/05 06:57:29;;;;;;;23.20;12.50;;;15.90;99.90;;;;;;4186812;22;20045;-76
2021/07/05 06:59:29;;;;;;;13.65;10.23;;;16.00;99.90;;;;;;4155376;28;20033;-77
2021/07/05 07:01:30;;;;;;;19.45;11.68;;;16.00;99.90;;;;;;4163954;28;20033;-77
2021/07/05 07:03:31;;;;;;;18.35;9.95;;;16.10;99.90;;;;;;4161410;28;20076;-76
2021/07/05 07:05:33;;;;;;;21.85;10.93;;;16.10;99.90;;;;;;4165637;28;20033;-76
2021/07/05 07:07:34;;;;;;;19.33;10.98;;;16.10;99.90;;;;;;4165393;28;20566;-76
2021/07/05 07:09:34;;;;;;;16.42;11.25;;;16.20;99.90;;;;;;4162431;28;20041;-76
2021/07/05 07:11:35;;;;;;;20.33;12.38;;;16.10;99.90;;;;;;4160254;28;20034;-76
2021/07/05 07:13:35;;;;;;;18.27;10.57;;;16.20;99.90;;;;;;4161873;28;20515;-77
2021/07/05 07:15:39;;;;;;;19.30;10.43;;;16.30;99.90;;;;;;4163350;28;20037;-76
2021/07/05 07:17:40;;;;;;;23.48;10.73;;;16.50;99.90;;;;;;4163265;28;20751;-76
2021/07/05 07:19:41;;;;;;;17.13;10.95;;;16.50;99.90;;;;;;4163872;28;20107;-76
2021/07/05 07:21:42;;;;;;;18.35;9.93;;;16.70;99.90;;;;;;4156997;28;20103;-76
2021/07/05 07:23:42;;;;;;;16.25;8.77;;;16.90;99.90;;;;;;4161697;28;20084;-76
2021/07/05 07:25:43;;;;;;;15.10;8.55;;;17.10;99.90;;;;;;4156891;28;20065;-76
2021/07/05 07:27:44;;;;;;;16.38;10.07;;;17.20;99.90;;;;;;4154558;28;20473;-76
2021/07/05 07:29:45;;;;;;;17.90;9.15;;;17.40;99.90;;;;;;4164192;28;20033;-76
2021/07/05 07:31:46;;;;;;;17.05;8.00;;;17.40;99.90;;;;;;4165021;28;20041;-76
2021/07/05 07:33:47;;;;;;;15.82;7.80;;;17.50;99.90;;;;;;4165315;28;20041;-74
2021/07/05 07:35:50;;;;;;;17.42;9.32;;;17.60;99.90;;;;;;4163602;28;20041;-76
2021/07/05 07:37:52;;;;;;;17.48;8.68;;;17.50;99.90;;;;;;4165476;28;20048;-74
2021/07/05 07:39:58;;;;;;;14.98;8.18;;;17.70;99.90;;;;;;4164326;28;20040;-76
2021/07/05 07:41:58;;;;;;;20.83;8.40;;;17.90;99.90;;;;;;4165352;28;20548;-75
2021/07/05 07:44:00;;;;;;;20.40;9.60;;;18.10;99.90;;;;;;4165234;28;20041;-76
2021/07/05 07:46:01;;;;;;;14.95;7.45;;;18.10;99.90;;;;;;4164709;28;20362;-77
2021/07/05 07:48:02;;;;;;;17.30;9.20;;;18.40;99.90;;;;;;4163604;28;20126;-76
2021/07/05 07:50:05;;;;;;;15.40;8.45;;;18.60;99.90;;;;;;4163709;28;20571;-76
2021/07/05 07:52:05;;;;;;;23.10;8.82;;;18.60;99.90;;;;;;4165137;28;20068;-75
2021/07/05 07:54:06;;;;;;;15.27;7.40;;;18.70;99.90;;;;;;4165391;28;20021;-76
2021/07/05 07:56:07;;;;;;;17.30;7.97;;;18.90;99.90;;;;;;4164590;28;20145;-76
2021/07/05 07:58:07;;;;;;;12.77;8.77;;;19.10;99.90;;;;;;4164694;28;20026;-76
2021/07/05 08:00:11;;;;;;;13.63;7.25;;;19.10;99.90;;;;;;4163620;28;20092;-76
2021/07/05 08:02:12;;;;;;;10.88;6.95;;;19.20;99.90;;;;;;4179767;28;20029;-76
2021/07/05 08:04:13;;;;;;;14.48;7.32;;;19.20;99.90;;;;;;4165177;28;20036;-76
2021/07/05 08:06:14;;;;;;;13.32;7.93;;;19.20;99.90;;;;;;4162327;28;20037;-75
2021/07/05 08:08:15;;;;;;;16.63;8.52;;;18.90;99.90;;;;;;4163885;28;20037;-76
2021/07/05 08:10:17;;;;;;;11.43;7.15;;;18.70;99.90;;;;;;4164789;28;20492;-77
2021/07/05 08:12:17;;;;;;;13.18;8.48;;;18.60;99.90;;;;;;4163117;28;20508;-75
2021/07/05 08:14:18;;;;;;;16.42;8.13;;;18.50;99.90;;;;;;4164604;28;20033;-75
2021/07/05 08:16:18;;;;;;;15.90;7.75;;;18.40;99.90;;;;;;4161663;28;20406;-75
2021/07/05 08:18:20;;;;;;;18.58;8.52;;;18.30;99.90;;;;;;4161635;28;20065;-76
2021/07/05 08:20:21;;;;;;;15.95;8.02;;;18.20;99.90;;;;;;4164081;28;20077;-75
2021/07/05 08:22:22;;;;;;;14.77;6.78;;;17.90;99.90;;;;;;4160802;28;20038;-75
2021/07/05 08:24:23;;;;;;;14.93;8.15;;;18.10;99.90;;;;;;4163402;28;20548;-75
2021/07/05 08:26:24;;;;;;;14.98;7.50;;;18.20;99.90;;;;;;4162180;28;20033;-75
2021/07/05 08:28:25;;;;;;;12.18;7.47;;;18.30;99.90;;;;;;4159763;28;20256;-75
2021/07/05 08:30:27;;;;;;;11.68;6.55;;;18.50;99.90;;;;;;4163396;28;20037;-76
2021/07/05 08:32:28;;;;;;;13.20;7.28;;;18.70;99.90;;;;;;4161105;28;20026;-75
2021/07/05 08:34:29;;;;;;;13.48;7.28;;;18.70;99.90;;;;;;4164016;28;20121;-75
2021/07/05 08:36:30;;;;;;;13.23;7.70;;;19.00;99.90;;;;;;4163986;28;20113;-75
2021/07/05 08:38:31;;;;;;;14.60;6.85;;;19.50;99.90;;;;;;4163602;28;20038;-74
2021/07/05 08:40:31;;;;;;;9.70;6.60;;;20.10;99.90;;;;;;4162068;28;20400;-75
2021/07/05 08:42:35;;;;;;;12.73;7.18;;;20.20;99.90;;;;;;4159013;28;20045;-74
2021/07/05 08:44:38;;;;;;;13.57;6.70;;;20.30;99.90;;;;;;4162472;28;20424;-75
2021/07/05 08:46:41;;;;;;;10.80;6.93;;;20.00;99.90;;;;;;4176350;28;20439;-75
2021/07/05 08:48:44;;;;;;;9.57;7.00;;;20.10;99.90;;;;;;4164506;28;20033;-75
2021/07/05 08:50:48;;;;;;;13.95;6.50;;;19.80;99.90;;;;;;4163922;28;20033;-75
2021/07/05 08:52:48;;;;;;;10.88;6.38;;;19.90;99.90;;;;;;4164311;28;20473;-75
2021/07/05 08:54:49;;;;;;;10.75;6.60;;;19.80;99.90;;;;;;4164462;28;20025;-76
2021/07/05 08:56:50;;;;;;;11.90;6.95;;;19.90;99.90;;;;;;4162573;28;20088;-76
2021/07/05 08:58:52;;;;;;;6.70;5.95;;;20.00;99.90;;;;;;4162682;28;20555;-75
2021/07/05 09:00:53;;;;;;;14.67;7.77;;;20.00;99.90;;;;;;4162395;28;20103;-75
2021/07/05 09:02:56;;;;;;;11.60;8.02;;;20.10;99.90;;;;;;4161510;28;20033;-76
2021/07/05 09:04:58;;;;;;;14.38;7.40;;;20.00;99.90;;;;;;4162405;28;20057;-75
2021/07/05 09:07:05;;;;;;;14.77;7.28;;;19.90;99.90;;;;;;4164128;28;20116;-75
2021/07/05 09:09:06;;;;;;;12.30;6.72;;;20.00;99.90;;;;;;4163563;28;20048;-75
2021/07/05 09:11:10;;;;;;;21.48;7.20;;;20.10;99.90;;;;;;4163761;28;20065;-75
2021/07/05 09:13:12;;;;;;;18.98;7.70;;;20.10;99.90;;;;;;4163658;28;20029;-75
2021/07/05 09:15:14;;;;;;;14.98;6.40;;;20.10;99.90;;;;;;4161632;28;20041;-75
2021/07/05 09:17:15;;;;;;;9.10;6.40;;;20.10;99.90;;;;;;4163979;28;20032;-75
2021/07/05 09:19:18;;;;;;;13.18;6.55;;;20.10;99.90;;;;;;4163598;28;20116;-75
2021/07/05 09:21:24;;;;;;;12.10;7.03;;;20.00;99.90;;;;;;4162201;28;20033;-76
2021/07/05 09:23:26;;;;;;;17.25;7.35;;;20.20;99.90;;;;;;4162759;28;20030;-76
2021/07/05 09:25:33;;;;;;;7.53;6.75;;;20.30;99.90;;;;;;4162038;28;20025;-72
2021/07/05 09:27:34;;;;;;;10.45;5.97;;;20.40;99.90;;;;;;4150318;28;20037;-75
2021/07/05 09:29:37;;;;;;;10.50;6.88;;;20.40;99.90;;;;;;4160626;28;20075;-74
2021/07/05 09:31:54;;;;;;;13.25;6.38;;;20.40;99.90;;;;;;4155996;28;20091;-74
2021/07/05 09:33:55;;;;;;;9.38;6.38;;;20.60;99.90;;;;;;4161666;28;20465;-74
2021/07/05 09:35:58;;;;;;;12.05;6.32;;;20.60;99.90;;;;;;4162121;28;20037;-74
2021/07/05 09:38:01;;;;;;;11.48;7.78;;;20.70;99.90;;;;;;4162350;28;20026;-75
2021/07/05 09:40:02;;;;;;;11.52;6.90;;;20.90;99.90;;;;;;4161076;28;20018;-75
2021/07/05 09:42:09;;;;;;;14.85;6.93;;;21.30;99.90;;;;;;4158884;28;20072;-74
2021/07/05 09:44:17;;;;;;;8.40;6.35;;;21.60;99.90;;;;;;4163183;28;20022;-73
2021/07/05 09:46:44;;;;;;;15.02;6.90;;;21.60;99.90;;;;;;4161429;28;20025;-74
2021/07/05 09:48:47;;;;;;;12.93;7.95;;;21.60;99.90;;;;;;4152624;28;20404;-74
2021/07/05 09:50:49;;;;;;;;;;;21.70;99.90;;;;;;4163942;28;20148;-75
2021/07/05 09:52:50;;;;;;;14.02;7.20;;;21.90;99.90;;;;;;4162846;28;19945;-75
2021/07/05 09:54:55;;;;;;;16.50;7.30;;;22.00;99.90;;;;;;4163057;28;20458;-76
2021/07/05 09:56:56;;;;;;;13.82;7.47;;;21.90;99.90;;;;;;4161491;28;20091;-75
2021/07/05 09:59:20;;;;;;;9.68;6.80;;;21.70;99.90;;;;;;4163169;28;20034;-75
2021/07/05 10:01:42;;;;;;;9.35;6.03;;;21.70;99.90;;;;;;4162444;28;20025;-75
2021/07/05 10:03:42;;;;;;;11.63;6.55;;;21.90;99.90;;;;;;4160947;28;20419;-75
2021/07/05 10:05:44;;;;;;;10.18;7.32;;;22.20;99.90;;;;;;4161756;28;20115;-76
2021/07/05 10:08:02;;;;;;;10.35;6.35;;;22.60;99.90;;;;;;4155156;28;20030;-76
2021/07/05 10:10:11;;;;;;;6.85;5.78;;;22.70;99.90;;;;;;4162346;28;20029;-76
2021/07/05 10:12:23;;;;;;;6.85;5.03;;;22.40;99.90;;;;;;4160608;28;20044;-76
2021/07/05 10:14:24;;;;;;;10.82;5.53;;;22.30;99.90;;;;;;4158060;28;20030;-76
2021/07/05 10:16:26;;;;;;;9.80;5.50;;;21.90;99.90;;;;;;4163594;28;20106;-76
2021/07/05 10:18:27;;;;;;;15.18;5.40;;;21.90;99.90;;;;;;4151569;28;20026;-75
2021/07/05 10:20:34;;;;;;;8.85;5.75;;;22.20;99.90;;;;;;4164919;28;20045;-76
2021/07/05 10:22:35;;;;;;;10.52;5.05;;;22.40;99.90;;;;;;4165209;28;20035;-75
2021/07/05 10:24:37;;;;;;;9.45;6.15;;;22.20;99.90;;;;;;4165494;28;20038;-76
2021/07/05 10:26:39;;;;;;;10.52;4.88;;;21.90;99.90;;;;;;4165828;28;20136;-76
2021/07/05 10:28:41;;;;;;;11.35;6.35;;;22.20;99.90;;;;;;4163892;28;20033;-76
2021/07/05 10:30:43;;;;;;;10.38;5.40;;;22.20;99.90;;;;;;4164401;28;20117;-76
2021/07/05 10:32:46;;;;;;;9.40;5.47;;;22.30;99.90;;;;;;4154513;28;20029;-76
2021/07/05 10:34:52;;;;;;;;;;;22.50;99.90;;;;;;4165171;28;20092;-76